sensor_id;sensor_type;location;lat;lon;timestamp;temperature;humidity
9810;DHT22;4944;52.514;13.192;2023-08-21T00:01:33;25.10;99.90
9810;DHT22;4944;52.514;13.192;2023-08-21T00:04:00;25.00;99.90
9810;DHT22;4944;52.514;13.192;2023-08-21T00:06:27;25.00;99.90
9810;DHT22;4944;52.514;13.192;2023-08-21T00:08:54;25.00;99.90
9810;DHT22;4944;52.514;13.192;2023-08-21T00:11:22;25.00;99.90
9810;DHT22;4944;52.514;13.192;2023-08-21T00:13:49;25.00;99.90
9810;DHT22;4944;52.514;13.192;2023-08-21T00:16:17;25.00;99.90
9810;DHT22;4944;52.514;13.192;2023-08-21T00:18:44;25.00;99.90
9810;DHT22;4944;52.514;13.192;2023-08-21T00:21:11;25.00;99.90
9810;DHT22;4944;52.514;13.192;2023-08-21T00:23:38;25.00;99.90
9810;DHT22;4944;52.514;13.192;2023-08-21T00:26:05;25.00;99.90
9810;DHT22;4944;52.514;13.192;2023-08-21T00:28:33;25.00;99.90
9810;DHT22;4944;52.514;13.192;2023-08-21T00:31:01;25.00;99.90
9810;DHT22;4944;52.514;13.192;2023-08-21T00:33:28;25.00;99.90
9810;DHT22;4944;52.514;13.192;2023-08-21T00:35:55;25.00;99.90
9810;DHT22;4944;52.514;13.192;2023-08-21T00:38:22;25.00;99.90
9810;DHT22;4944;52.514;13.192;2023-08-21T00:40:49;25.00;99.90
9810;DHT22;4944;52.514;13.192;2023-08-21T00:43:16;24.90;99.90
9810;DHT22;4944;52.514;13.192;2023-08-21T00:45:45;24.90;99.90
9810;DHT22;4944;52.514;13.192;2023-08-21T00:48:14;24.90;99.90
9810;DHT22;4944;52.514;13.192;2023-08-21T00:50:41;24.90;99.90
9810;DHT22;4944;52.514;13.192;2023-08-21T00:53:08;24.90;99.90
9810;DHT22;4944;52.514;13.192;2023-08-21T00:55:35;24.90;99.90
9810;DHT22;4944;52.514;13.192;2023-08-21T00:58:03;24.90;99.90
9810;DHT22;4944;52.514;13.192;2023-08-21T01:00:30;24.80;99.90
9810;DHT22;4944;52.514;13.192;2023-08-21T01:02:59;24.90;99.90
9810;DHT22;4944;52.514;13.192;2023-08-21T01:05:26;24.90;99.90
9810;DHT22;4944;52.514;13.192;2023-08-21T01:07:57;24.80;99.90
9810;DHT22;4944;52.514;13.192;2023-08-21T01:10:36;24.80;99.90
9810;DHT22;4944;52.514;13.192;2023-08-21T01:13:11;24.80;99.90
9810;DHT22;4944;52.514;13.192;2023-08-21T01:15:41;24.80;99.90
9810;DHT22;4944;52.514;13.192;2023-08-21T01:18:11;24.80;99.90
9810;DHT22;4944;52.514;13.192;2023-08-21T01:20:38;24.80;99.90
9810;DHT22;4944;52.514;13.192;2023-08-21T01:23:06;24.80;99.90
9810;DHT22;4944;52.514;13.192;2023-08-21T01:25:34;24.80;99.90
9810;DHT22;4944;52.514;13.192;2023-08-21T01:28:01;24.80;99.90
9810;DHT22;4944;52.514;13.192;2023-08-21T01:30:29;24.80;99.90
9810;DHT22;4944;52.514;13.192;2023-08-21T01:33:00;24.80;99.90
9810;DHT22;4944;52.514;13.192;2023-08-21T01:35:31;24.80;99.90
9810;DHT22;4944;52.514;13.192;2023-08-21T01:38:00;24.80;99.90
9810;DHT22;4944;52.514;13.192;2023-08-21T01:40:27;24.80;99.90
9810;DHT22;4944;52.514;13.192;2023-08-21T01:42:56;24.80;99.90
9810;DHT22;4944;52.514;13.192;2023-08-21T01:45:23;24.80;99.90
9810;DHT22;4944;52.514;13.192;2023-08-21T01:47:50;24.60;99.90
9810;DHT22;4944;52.514;13.192;2023-08-21T01:50:17;24.70;99.90
9810;DHT22;4944;52.514;13.192;2023-08-21T01:52:43;24.60;99.90
9810;DHT22;4944;52.514;13.192;2023-08-21T01:55:10;24.70;99.90
9810;DHT22;4944;52.514;13.192;2023-08-21T01:57:38;24.70;99.90
9810;DHT22;4944;52.514;13.192;2023-08-21T02:00:07;24.70;99.90
9810;DHT22;4944;52.514;13.192;2023-08-21T02:02:35;24.70;99.90
9810;DHT22;4944;52.514;13.192;2023-08-21T02:05:01;24.60;99.90
9810;DHT22;4944;52.514;13.192;2023-08-21T02:07:29;24.50;99.90
9810;DHT22;4944;52.514;13.192;2023-08-21T02:09:56;24.50;99.90
9810;DHT22;4944;52.514;13.192;2023-08-21T02:12:23;24.60;99.90
9810;DHT22;4944;52.514;13.192;2023-08-21T02:14:50;24.50;99.90
9810;DHT22;4944;52.514;13.192;2023-08-21T02:17:18;24.50;99.90
9810;DHT22;4944;52.514;13.192;2023-08-21T02:19:45;24.50;99.90
9810;DHT22;4944;52.514;13.192;2023-08-21T02:22:11;24.50;99.90
9810;DHT22;4944;52.514;13.192;2023-08-21T02:24:38;24.50;99.90
9810;DHT22;4944;52.514;13.192;2023-08-21T02:27:05;24.60;99.90
9810;DHT22;4944;52.514;13.192;2023-08-21T02:29:32;24.60;99.90
9810;DHT22;4944;52.514;13.192;2023-08-21T02:31:59;24.50;99.90
9810;DHT22;4944;52.514;13.192;2023-08-21T02:34:27;24.50;99.90
9810;DHT22;4944;52.514;13.192;2023-08-21T02:36:54;24.50;99.90
9810;DHT22;4944;52.514;13.192;2023-08-21T02:39:21;24.40;99.90
9810;DHT22;4944;52.514;13.192;2023-08-21T02:41:48;24.40;99.90
9810;DHT22;4944;52.514;13.192;2023-08-21T02:44:14;24.40;99.90
9810;DHT22;4944;52.514;13.192;2023-08-21T02:46:41;24.30;99.90
9810;DHT22;4944;52.514;13.192;2023-08-21T02:49:08;24.30;99.90
9810;DHT22;4944;52.514;13.192;2023-08-21T02:51:36;24.30;99.90
9810;DHT22;4944;52.514;13.192;2023-08-21T02:54:03;24.20;99.90
9810;DHT22;4944;52.514;13.192;2023-08-21T02:56:30;24.20;99.90
9810;DHT22;4944;52.514;13.192;2023-08-21T02:58:57;24.30;99.90
9810;DHT22;4944;52.514;13.192;2023-08-21T03:01:24;24.30;99.90
9810;DHT22;4944;52.514;13.192;2023-08-21T03:03:51;24.30;99.90
9810;DHT22;4944;52.514;13.192;2023-08-21T03:06:18;24.30;99.90
9810;DHT22;4944;52.514;13.192;2023-08-21T03:08:46;24.30;99.90
9810;DHT22;4944;52.514;13.192;2023-08-21T03:11:13;24.30;99.90
9810;DHT22;4944;52.514;13.192;2023-08-21T03:13:39;24.30;99.90
9810;DHT22;4944;52.514;13.192;2023-08-21T03:16:06;24.30;99.90
9810;DHT22;4944;52.514;13.192;2023-08-21T03:18:53;24.30;99.90
9810;DHT22;4944;52.514;13.192;2023-08-21T03:21:20;24.40;99.90
9810;DHT22;4944;52.514;13.192;2023-08-21T03:23:50;24.30;99.90
9810;DHT22;4944;52.514;13.192;2023-08-21T03:26:17;24.30;99.90
9810;DHT22;4944;52.514;13.192;2023-08-21T03:28:44;24.30;99.90
9810;DHT22;4944;52.514;13.192;2023-08-21T03:31:11;24.40;99.90
9810;DHT22;4944;52.514;13.192;2023-08-21T03:33:38;24.30;99.90
9810;DHT22;4944;52.514;13.192;2023-08-21T03:36:05;24.30;99.90
9810;DHT22;4944;52.514;13.192;2023-08-21T03:38:31;24.30;99.90
9810;DHT22;4944;52.514;13.192;2023-08-21T03:41:00;24.30;99.90
9810;DHT22;4944;52.514;13.192;2023-08-21T03:43:28;24.30;99.90
9810;DHT22;4944;52.514;13.192;2023-08-21T03:45:55;24.30;99.90
9810;DHT22;4944;52.514;13.192;2023-08-21T03:48:22;24.30;99.90
9810;DHT22;4944;52.514;13.192;2023-08-21T03:50:49;24.20;99.90
9810;DHT22;4944;52.514;13.192;2023-08-21T03:53:16;24.20;99.90
9810;DHT22;4944;52.514;13.192;2023-08-21T03:55:43;24.20;99.90
9810;DHT22;4944;52.514;13.192;2023-08-21T03:58:11;24.20;99.90
9810;DHT22;4944;52.514;13.192;2023-08-21T04:00:38;24.20;99.90
9810;DHT22;4944;52.514;13.192;2023-08-21T04:03:05;24.10;99.90
9810;DHT22;4944;52.514;13.192;2023-08-21T04:05:32;24.00;99.90
9810;DHT22;4944;52.514;13.192;2023-08-21T04:07:59;23.80;99.90
9810;DHT22;4944;52.514;13.192;2023-08-21T04:10:26;23.80;99.90
9810;DHT22;4944;52.514;13.192;2023-08-21T04:12:53;23.70;99.90
9810;DHT22;4944;52.514;13.192;2023-08-21T04:15:21;23.60;99.90
9810;DHT22;4944;52.514;13.192;2023-08-21T04:17:48;23.70;99.90
9810;DHT22;4944;52.514;13.192;2023-08-21T04:20:15;23.70;99.90
9810;DHT22;4944;52.514;13.192;2023-08-21T04:22:42;23.70;99.90
9810;DHT22;4944;52.514;13.192;2023-08-21T04:25:09;23.70;99.90
9810;DHT22;4944;52.514;13.192;2023-08-21T04:27:36;23.70;99.90
9810;DHT22;4944;52.514;13.192;2023-08-21T04:30:04;23.80;99.90
9810;DHT22;4944;52.514;13.192;2023-08-21T04:32:33;23.70;99.90
9810;DHT22;4944;52.514;13.192;2023-08-21T04:35:00;23.70;99.90
9810;DHT22;4944;52.514;13.192;2023-08-21T04:37:27;23.60;99.90
9810;DHT22;4944;52.514;13.192;2023-08-21T04:39:54;23.60;99.90
9810;DHT22;4944;52.514;13.192;2023-08-21T04:42:21;23.60;99.90
9810;DHT22;4944;52.514;13.192;2023-08-21T04:44:48;23.70;99.90
9810;DHT22;4944;52.514;13.192;2023-08-21T04:47:22;23.70;99.90
9810;DHT22;4944;52.514;13.192;2023-08-21T04:49:50;23.60;99.90
9810;DHT22;4944;52.514;13.192;2023-08-21T04:52:17;23.60;99.90
9810;DHT22;4944;52.514;13.192;2023-08-21T04:54:44;23.60;99.90
9810;DHT22;4944;52.514;13.192;2023-08-21T04:57:11;23.60;99.90
9810;DHT22;4944;52.514;13.192;2023-08-21T04:59:38;23.60;99.90
9810;DHT22;4944;52.514;13.192;2023-08-21T05:02:05;23.60;99.90
9810;DHT22;4944;52.514;13.192;2023-08-21T05:04:32;23.70;99.90
9810;DHT22;4944;52.514;13.192;2023-08-21T05:07:00;23.70;99.90
9810;DHT22;4944;52.514;13.192;2023-08-21T05:09:27;23.70;99.90
9810;DHT22;4944;52.514;13.192;2023-08-21T05:11:54;23.70;99.90
9810;DHT22;4944;52.514;13.192;2023-08-21T05:14:22;23.70;99.90
9810;DHT22;4944;52.514;13.192;2023-08-21T05:16:49;23.70;99.90
9810;DHT22;4944;52.514;13.192;2023-08-21T05:19:16;23.80;99.90
9810;DHT22;4944;52.514;13.192;2023-08-21T05:21:43;23.70;99.90
9810;DHT22;4944;52.514;13.192;2023-08-21T05:24:11;23.80;99.90
9810;DHT22;4944;52.514;13.192;2023-08-21T05:26:38;23.80;99.90
9810;DHT22;4944;52.514;13.192;2023-08-21T05:29:05;23.80;99.90
9810;DHT22;4944;52.514;13.192;2023-08-21T05:31:32;23.80;99.90
9810;DHT22;4944;52.514;13.192;2023-08-21T05:33:59;23.90;99.90
9810;DHT22;4944;52.514;13.192;2023-08-21T05:36:26;23.90;99.90
9810;DHT22;4944;52.514;13.192;2023-08-21T05:38:53;23.90;99.90
9810;DHT22;4944;52.514;13.192;2023-08-21T05:41:21;24.00;99.90
9810;DHT22;4944;52.514;13.192;2023-08-21T05:43:48;24.00;99.90
9810;DHT22;4944;52.514;13.192;2023-08-21T05:46:15;24.00;99.90
9810;DHT22;4944;52.514;13.192;2023-08-21T05:48:41;24.00;99.90
9810;DHT22;4944;52.514;13.192;2023-08-21T05:51:08;24.10;99.90
9810;DHT22;4944;52.514;13.192;2023-08-21T05:53:35;24.10;99.90
9810;DHT22;4944;52.514;13.192;2023-08-21T05:56:02;24.10;99.90
9810;DHT22;4944;52.514;13.192;2023-08-21T05:58:30;24.10;99.90
9810;DHT22;4944;52.514;13.192;2023-08-21T06:00:58;24.10;99.90
9810;DHT22;4944;52.514;13.192;2023-08-21T06:03:25;24.10;99.90
9810;DHT22;4944;52.514;13.192;2023-08-21T06:05:52;24.00;99.90
9810;DHT22;4944;52.514;13.192;2023-08-21T06:08:19;23.90;99.90
9810;DHT22;4944;52.514;13.192;2023-08-21T06:10:51;23.90;99.90
9810;DHT22;4944;52.514;13.192;2023-08-21T06:13:18;23.90;99.90
9810;DHT22;4944;52.514;13.192;2023-08-21T06:15:46;23.90;99.90
9810;DHT22;4944;52.514;13.192;2023-08-21T06:18:13;23.90;99.90
9810;DHT22;4944;52.514;13.192;2023-08-21T06:20:42;23.90;99.90
9810;DHT22;4944;52.514;13.192;2023-08-21T06:23:09;23.90;99.90
9810;DHT22;4944;52.514;13.192;2023-08-21T06:25:37;23.90;99.90
9810;DHT22;4944;52.514;13.192;2023-08-21T06:28:04;23.90;99.90
9810;DHT22;4944;52.514;13.192;2023-08-21T06:30:31;23.90;99.90
9810;DHT22;4944;52.514;13.192;2023-08-21T06:32:59;23.90;99.90
9810;DHT22;4944;52.514;13.192;2023-08-21T06:35:26;24.00;99.90
9810;DHT22;4944;52.514;13.192;2023-08-21T06:37:53;24.00;99.90
9810;DHT22;4944;52.514;13.192;2023-08-21T06:40:21;24.00;99.90
9810;DHT22;4944;52.514;13.192;2023-08-21T06:42:48;24.10;99.90
9810;DHT22;4944;52.514;13.192;2023-08-21T06:45:16;24.10;99.90
9810;DHT22;4944;52.514;13.192;2023-08-21T06:47:43;24.20;99.90
9810;DHT22;4944;52.514;13.192;2023-08-21T06:50:12;24.20;99.90
9810;DHT22;4944;52.514;13.192;2023-08-21T06:52:39;24.20;99.90
9810;DHT22;4944;52.514;13.192;2023-08-21T06:55:06;24.20;99.90
9810;DHT22;4944;52.514;13.192;2023-08-21T06:57:33;24.10;99.90
9810;DHT22;4944;52.514;13.192;2023-08-21T07:00:00;24.20;99.90
9810;DHT22;4944;52.514;13.192;2023-08-21T07:02:27;24.20;99.90
9810;DHT22;4944;52.514;13.192;2023-08-21T07:04:54;24.30;99.90
9810;DHT22;4944;52.514;13.192;2023-08-21T07:07:22;24.30;99.90
9810;DHT22;4944;52.514;13.192;2023-08-21T07:09:50;24.30;99.90
9810;DHT22;4944;52.514;13.192;2023-08-21T07:12:17;24.40;99.90
9810;DHT22;4944;52.514;13.192;2023-08-21T07:14:44;24.40;99.90
9810;DHT22;4944;52.514;13.192;2023-08-21T07:17:11;24.40;99.90
9810;DHT22;4944;52.514;13.192;2023-08-21T07:19:38;24.50;99.90
9810;DHT22;4944;52.514;13.192;2023-08-21T07:22:05;24.60;99.90
9810;DHT22;4944;52.514;13.192;2023-08-21T07:24:33;24.60;99.90
9810;DHT22;4944;52.514;13.192;2023-08-21T07:27:00;24.60;99.90
9810;DHT22;4944;52.514;13.192;2023-08-21T07:29:27;24.70;99.90
9810;DHT22;4944;52.514;13.192;2023-08-21T07:31:53;24.80;99.90
9810;DHT22;4944;52.514;13.192;2023-08-21T07:34:20;24.80;99.90
9810;DHT22;4944;52.514;13.192;2023-08-21T07:36:47;25.00;99.90
9810;DHT22;4944;52.514;13.192;2023-08-21T07:39:14;25.10;99.90
9810;DHT22;4944;52.514;13.192;2023-08-21T07:41:42;25.10;99.90
9810;DHT22;4944;52.514;13.192;2023-08-21T07:44:09;25.20;99.90
9810;DHT22;4944;52.514;13.192;2023-08-21T07:46:36;25.20;99.90
9810;DHT22;4944;52.514;13.192;2023-08-21T07:49:03;25.30;99.90
9810;DHT22;4944;52.514;13.192;2023-08-21T07:51:30;25.20;99.90
9810;DHT22;4944;52.514;13.192;2023-08-21T07:53:57;25.30;99.90
9810;DHT22;4944;52.514;13.192;2023-08-21T07:56:23;25.30;99.90
9810;DHT22;4944;52.514;13.192;2023-08-21T07:58:52;25.20;99.90
9810;DHT22;4944;52.514;13.192;2023-08-21T08:01:18;25.30;99.90
9810;DHT22;4944;52.514;13.192;2023-08-21T08:03:46;25.30;99.90
9810;DHT22;4944;52.514;13.192;2023-08-21T08:06:12;25.30;99.90
9810;DHT22;4944;52.514;13.192;2023-08-21T08:08:39;25.30;99.90
9810;DHT22;4944;52.514;13.192;2023-08-21T08:11:06;25.30;99.90
9810;DHT22;4944;52.514;13.192;2023-08-21T08:13:33;25.40;99.90
9810;DHT22;4944;52.514;13.192;2023-08-21T08:16:01;25.40;99.90
9810;DHT22;4944;52.514;13.192;2023-08-21T08:18:28;25.40;99.90
9810;DHT22;4944;52.514;13.192;2023-08-21T08:20:55;25.40;99.90
9810;DHT22;4944;52.514;13.192;2023-08-21T08:23:22;25.50;99.90
9810;DHT22;4944;52.514;13.192;2023-08-21T08:25:49;25.60;99.90
9810;DHT22;4944;52.514;13.192;2023-08-21T08:28:16;25.70;99.90
9810;DHT22;4944;52.514;13.192;2023-08-21T08:30:43;25.80;99.90
9810;DHT22;4944;52.514;13.192;2023-08-21T08:33:11;25.80;99.90
9810;DHT22;4944;52.514;13.192;2023-08-21T08:35:38;25.90;99.90
9810;DHT22;4944;52.514;13.192;2023-08-21T08:38:06;26.00;99.90
9810;DHT22;4944;52.514;13.192;2023-08-21T08:40:33;26.10;99.90
9810;DHT22;4944;52.514;13.192;2023-08-21T08:43:01;26.10;99.90
9810;DHT22;4944;52.514;13.192;2023-08-21T08:45:29;26.10;99.90
9810;DHT22;4944;52.514;13.192;2023-08-21T08:47:59;26.20;99.90
9810;DHT22;4944;52.514;13.192;2023-08-21T08:50:29;26.20;99.90
9810;DHT22;4944;52.514;13.192;2023-08-21T08:52:57;26.30;99.90
9810;DHT22;4944;52.514;13.192;2023-08-21T08:55:24;26.30;99.90
9810;DHT22;4944;52.514;13.192;2023-08-21T08:57:51;26.30;99.90
9810;DHT22;4944;52.514;13.192;2023-08-21T09:00:19;26.30;99.90
9810;DHT22;4944;52.514;13.192;2023-08-21T09:02:50;26.30;99.90
9810;DHT22;4944;52.514;13.192;2023-08-21T09:05:19;26.30;99.90
9810;DHT22;4944;52.514;13.192;2023-08-21T09:08:02;26.30;99.90
9810;DHT22;4944;52.514;13.192;2023-08-21T09:10:29;26.30;99.90
9810;DHT22;4944;52.514;13.192;2023-08-21T09:12:57;26.30;99.90
9810;DHT22;4944;52.514;13.192;2023-08-21T09:15:28;26.40;99.90
9810;DHT22;4944;52.514;13.192;2023-08-21T09:17:56;26.40;99.90
9810;DHT22;4944;52.514;13.192;2023-08-21T09:20:23;26.50;99.90
9810;DHT22;4944;52.514;13.192;2023-08-21T09:22:54;26.60;99.90
9810;DHT22;4944;52.514;13.192;2023-08-21T09:25:23;26.70;99.90
9810;DHT22;4944;52.514;13.192;2023-08-21T09:27:52;26.70;99.90
9810;DHT22;4944;52.514;13.192;2023-08-21T09:30:19;26.70;99.90
9810;DHT22;4944;52.514;13.192;2023-08-21T09:32:54;26.70;99.90
9810;DHT22;4944;52.514;13.192;2023-08-21T09:35:24;26.80;99.90
9810;DHT22;4944;52.514;13.192;2023-08-21T09:37:51;26.90;99.90
9810;DHT22;4944;52.514;13.192;2023-08-21T09:40:21;26.90;99.90
9810;DHT22;4944;52.514;13.192;2023-08-21T09:42:52;26.90;99.90
9810;DHT22;4944;52.514;13.192;2023-08-21T09:45:21;26.80;99.90
9810;DHT22;4944;52.514;13.192;2023-08-21T09:47:48;26.80;99.90
9810;DHT22;4944;52.514;13.192;2023-08-21T09:50:15;26.80;99.90
9810;DHT22;4944;52.514;13.192;2023-08-21T09:52:42;26.90;99.90
9810;DHT22;4944;52.514;13.192;2023-08-21T09:55:10;27.00;99.90
9810;DHT22;4944;52.514;13.192;2023-08-21T09:57:39;27.00;99.90
9810;DHT22;4944;52.514;13.192;2023-08-21T10:00:07;27.10;99.90
9810;DHT22;4944;52.514;13.192;2023-08-21T10:02:42;27.10;99.90
9810;DHT22;4944;52.514;13.192;2023-08-21T10:05:12;27.30;99.90
9810;DHT22;4944;52.514;13.192;2023-08-21T10:07:40;27.30;99.90
9810;DHT22;4944;52.514;13.192;2023-08-21T10:10:08;27.40;99.90
9810;DHT22;4944;52.514;13.192;2023-08-21T10:12:35;27.50;99.90
9810;DHT22;4944;52.514;13.192;2023-08-21T10:15:05;27.60;99.90
9810;DHT22;4944;52.514;13.192;2023-08-21T10:17:34;27.70;99.90
9810;DHT22;4944;52.514;13.192;2023-08-21T10:20:03;27.80;99.90
9810;DHT22;4944;52.514;13.192;2023-08-21T10:22:48;27.80;99.80
9810;DHT22;4944;52.514;13.192;2023-08-21T10:25:16;27.80;99.60
9810;DHT22;4944;52.514;13.192;2023-08-21T10:27:46;27.80;99.70
9810;DHT22;4944;52.514;13.192;2023-08-21T10:30:19;27.70;99.80
9810;DHT22;4944;52.514;13.192;2023-08-21T10:32:47;27.60;99.90
9810;DHT22;4944;52.514;13.192;2023-08-21T10:35:15;27.60;99.80
9810;DHT22;4944;52.514;13.192;2023-08-21T10:38:05;27.50;99.90
9810;DHT22;4944;52.514;13.192;2023-08-21T10:40:32;27.60;99.90
9810;DHT22;4944;52.514;13.192;2023-08-21T10:43:00;27.70;99.90
9810;DHT22;4944;52.514;13.192;2023-08-21T10:45:31;27.70;99.90
9810;DHT22;4944;52.514;13.192;2023-08-21T10:47:58;27.80;99.90
9810;DHT22;4944;52.514;13.192;2023-08-21T10:50:26;27.80;99.90
9810;DHT22;4944;52.514;13.192;2023-08-21T10:52:53;27.80;99.90
9810;DHT22;4944;52.514;13.192;2023-08-21T10:55:20;27.90;99.90
9810;DHT22;4944;52.514;13.192;2023-08-21T10:57:48;27.90;99.90
9810;DHT22;4944;52.514;13.192;2023-08-21T11:00:16;27.90;99.90
9810;DHT22;4944;52.514;13.192;2023-08-21T11:02:46;27.80;99.90
9810;DHT22;4944;52.514;13.192;2023-08-21T11:05:14;27.80;99.90
9810;DHT22;4944;52.514;13.192;2023-08-21T11:07:42;27.80;99.90
9810;DHT22;4944;52.514;13.192;2023-08-21T11:10:12;27.70;99.90
9810;DHT22;4944;52.514;13.192;2023-08-21T11:12:48;27.70;99.90
9810;DHT22;4944;52.514;13.192;2023-08-21T11:15:16;27.70;99.90
9810;DHT22;4944;52.514;13.192;2023-08-21T11:17:53;27.80;99.90
9810;DHT22;4944;52.514;13.192;2023-08-21T11:20:20;27.80;99.90
9810;DHT22;4944;52.514;13.192;2023-08-21T11:22:47;27.80;99.70
9810;DHT22;4944;52.514;13.192;2023-08-21T11:25:14;27.80;99.80
9810;DHT22;4944;52.514;13.192;2023-08-21T11:27:41;27.80;99.90
9810;DHT22;4944;52.514;13.192;2023-08-21T11:30:11;27.80;99.50
9810;DHT22;4944;52.514;13.192;2023-08-21T11:32:38;27.80;99.90
9810;DHT22;4944;52.514;13.192;2023-08-21T11:35:07;27.90;99.90
9810;DHT22;4944;52.514;13.192;2023-08-21T11:37:34;28.00;99.90
9810;DHT22;4944;52.514;13.192;2023-08-21T11:40:10;27.90;99.60
9810;DHT22;4944;52.514;13.192;2023-08-21T11:42:37;27.90;99.50
9810;DHT22;4944;52.514;13.192;2023-08-21T11:45:05;27.90;99.80
9810;DHT22;4944;52.514;13.192;2023-08-21T11:47:34;27.90;99.70
9810;DHT22;4944;52.514;13.192;2023-08-21T11:50:07;27.90;99.90
9810;DHT22;4944;52.514;13.192;2023-08-21T11:52:36;27.90;99.90
9810;DHT22;4944;52.514;13.192;2023-08-21T11:55:07;27.80;99.70
9810;DHT22;4944;52.514;13.192;2023-08-21T11:57:34;27.80;99.60
9810;DHT22;4944;52.514;13.192;2023-08-21T12:00:02;27.70;99.90
9810;DHT22;4944;52.514;13.192;2023-08-21T12:02:32;27.70;99.90
9810;DHT22;4944;52.514;13.192;2023-08-21T12:05:02;27.70;99.60
9810;DHT22;4944;52.514;13.192;2023-08-21T12:07:31;27.70;99.80
9810;DHT22;4944;52.514;13.192;2023-08-21T12:09:58;27.70;99.90
9810;DHT22;4944;52.514;13.192;2023-08-21T12:12:25;27.70;99.90
9810;DHT22;4944;52.514;13.192;2023-08-21T12:14:52;27.70;99.90
9810;DHT22;4944;52.514;13.192;2023-08-21T12:17:19;27.60;99.90
9810;DHT22;4944;52.514;13.192;2023-08-21T12:19:46;27.60;99.90
9810;DHT22;4944;52.514;13.192;2023-08-21T12:22:13;27.60;99.90
9810;DHT22;4944;52.514;13.192;2023-08-21T12:24:41;27.60;99.90
9810;DHT22;4944;52.514;13.192;2023-08-21T12:27:08;27.60;99.90
9810;DHT22;4944;52.514;13.192;2023-08-21T12:29:35;27.60;99.90
9810;DHT22;4944;52.514;13.192;2023-08-21T12:32:02;27.60;99.90
9810;DHT22;4944;52.514;13.192;2023-08-21T12:34:29;27.70;99.90
9810;DHT22;4944;52.514;13.192;2023-08-21T12:36:56;27.80;99.90
9810;DHT22;4944;52.514;13.192;2023-08-21T12:39:23;28.00;99.90
9810;DHT22;4944;52.514;13.192;2023-08-21T12:41:51;28.10;99.90
9810;DHT22;4944;52.514;13.192;2023-08-21T12:44:18;28.30;99.90
9810;DHT22;4944;52.514;13.192;2023-08-21T12:46:45;28.30;99.90
9810;DHT22;4944;52.514;13.192;2023-08-21T12:49:12;28.40;99.50
9810;DHT22;4944;52.514;13.192;2023-08-21T12:51:39;28.50;99.40
9810;DHT22;4944;52.514;13.192;2023-08-21T12:54:06;28.60;99.50
9810;DHT22;4944;52.514;13.192;2023-08-21T12:56:34;28.60;98.60
9810;DHT22;4944;52.514;13.192;2023-08-21T12:59:02;28.60;97.80
9810;DHT22;4944;52.514;13.192;2023-08-21T13:01:29;28.60;98.00
9810;DHT22;4944;52.514;13.192;2023-08-21T13:03:57;28.70;98.30
9810;DHT22;4944;52.514;13.192;2023-08-21T13:06:24;28.60;98.40
9810;DHT22;4944;52.514;13.192;2023-08-21T13:08:51;28.50;98.50
9810;DHT22;4944;52.514;13.192;2023-08-21T13:11:17;28.30;98.10
9810;DHT22;4944;52.514;13.192;2023-08-21T13:13:44;28.30;98.90
9810;DHT22;4944;52.514;13.192;2023-08-21T13:16:13;28.30;98.90
9810;DHT22;4944;52.514;13.192;2023-08-21T13:18:40;28.20;98.80
9810;DHT22;4944;52.514;13.192;2023-08-21T13:21:07;28.20;98.80
9810;DHT22;4944;52.514;13.192;2023-08-21T13:23:34;28.10;98.60
9810;DHT22;4944;52.514;13.192;2023-08-21T13:26:01;28.10;98.90
9810;DHT22;4944;52.514;13.192;2023-08-21T13:28:28;28.10;98.70
9810;DHT22;4944;52.514;13.192;2023-08-21T13:30:56;28.20;99.30
9810;DHT22;4944;52.514;13.192;2023-08-21T13:33:25;28.30;99.10
9810;DHT22;4944;52.514;13.192;2023-08-21T13:35:52;28.40;98.70
9810;DHT22;4944;52.514;13.192;2023-08-21T13:38:19;28.40;98.90
9810;DHT22;4944;52.514;13.192;2023-08-21T13:40:45;28.40;97.90
9810;DHT22;4944;52.514;13.192;2023-08-21T13:43:12;28.50;97.80
9810;DHT22;4944;52.514;13.192;2023-08-21T13:45:39;28.50;97.60
9810;DHT22;4944;52.514;13.192;2023-08-21T13:48:06;28.50;97.10
9810;DHT22;4944;52.514;13.192;2023-08-21T13:50:35;28.40;97.80
9810;DHT22;4944;52.514;13.192;2023-08-21T13:53:02;28.40;96.90
9810;DHT22;4944;52.514;13.192;2023-08-21T13:55:29;28.30;97.20
9810;DHT22;4944;52.514;13.192;2023-08-21T13:57:56;28.30;97.30
9810;DHT22;4944;52.514;13.192;2023-08-21T14:00:22;28.40;97.10
9810;DHT22;4944;52.514;13.192;2023-08-21T14:02:50;28.40;97.50
9810;DHT22;4944;52.514;13.192;2023-08-21T14:05:17;28.50;97.00
9810;DHT22;4944;52.514;13.192;2023-08-21T14:07:45;28.50;96.80
9810;DHT22;4944;52.514;13.192;2023-08-21T14:10:12;28.40;97.00
9810;DHT22;4944;52.514;13.192;2023-08-21T14:12:40;28.40;96.80
9810;DHT22;4944;52.514;13.192;2023-08-21T14:15:07;28.50;97.20
9810;DHT22;4944;52.514;13.192;2023-08-21T14:17:34;28.60;97.50
9810;DHT22;4944;52.514;13.192;2023-08-21T14:20:01;28.70;97.20
9810;DHT22;4944;52.514;13.192;2023-08-21T14:22:28;28.80;96.80
9810;DHT22;4944;52.514;13.192;2023-08-21T14:24:56;28.80;96.50
9810;DHT22;4944;52.514;13.192;2023-08-21T14:27:23;28.80;96.40
9810;DHT22;4944;52.514;13.192;2023-08-21T14:29:50;28.90;96.60
9810;DHT22;4944;52.514;13.192;2023-08-21T14:32:17;28.80;96.10
9810;DHT22;4944;52.514;13.192;2023-08-21T14:34:44;28.90;96.70
9810;DHT22;4944;52.514;13.192;2023-08-21T14:37:12;28.90;97.70
9810;DHT22;4944;52.514;13.192;2023-08-21T14:39:41;29.00;97.00
9810;DHT22;4944;52.514;13.192;2023-08-21T14:42:09;29.00;97.00
9810;DHT22;4944;52.514;13.192;2023-08-21T14:44:37;29.10;97.00
9810;DHT22;4944;52.514;13.192;2023-08-21T14:47:04;29.20;96.60
9810;DHT22;4944;52.514;13.192;2023-08-21T14:49:31;29.20;96.70
9810;DHT22;4944;52.514;13.192;2023-08-21T14:51:58;29.10;96.20
9810;DHT22;4944;52.514;13.192;2023-08-21T14:54:25;29.10;96.30
9810;DHT22;4944;52.514;13.192;2023-08-21T14:56:52;29.00;96.30
9810;DHT22;4944;52.514;13.192;2023-08-21T14:59:20;29.00;96.60
9810;DHT22;4944;52.514;13.192;2023-08-21T15:01:47;28.90;96.50
9810;DHT22;4944;52.514;13.192;2023-08-21T15:04:14;28.80;96.50
9810;DHT22;4944;52.514;13.192;2023-08-21T15:06:41;28.80;96.70
9810;DHT22;4944;52.514;13.192;2023-08-21T15:09:08;28.80;96.70
9810;DHT22;4944;52.514;13.192;2023-08-21T15:11:35;28.80;97.40
9810;DHT22;4944;52.514;13.192;2023-08-21T15:14:02;28.80;96.60
9810;DHT22;4944;52.514;13.192;2023-08-21T15:16:31;28.80;96.60
9810;DHT22;4944;52.514;13.192;2023-08-21T15:18:58;28.90;97.20
9810;DHT22;4944;52.514;13.192;2023-08-21T15:21:25;29.00;97.30
9810;DHT22;4944;52.514;13.192;2023-08-21T15:23:52;29.00;97.00
9810;DHT22;4944;52.514;13.192;2023-08-21T15:26:19;29.00;97.40
9810;DHT22;4944;52.514;13.192;2023-08-21T15:28:46;29.10;96.60
9810;DHT22;4944;52.514;13.192;2023-08-21T15:31:13;29.00;96.60
9810;DHT22;4944;52.514;13.192;2023-08-21T15:33:41;29.00;96.90
9810;DHT22;4944;52.514;13.192;2023-08-21T15:36:08;29.00;96.60
9810;DHT22;4944;52.514;13.192;2023-08-21T15:38:35;29.00;96.60
9810;DHT22;4944;52.514;13.192;2023-08-21T15:41:02;29.00;96.70
9810;DHT22;4944;52.514;13.192;2023-08-21T15:43:29;29.00;96.90
9810;DHT22;4944;52.514;13.192;2023-08-21T15:45:56;29.00;97.10
9810;DHT22;4944;52.514;13.192;2023-08-21T15:48:22;29.00;97.00